Time;durP1;ratioP1;P1;durP2;ratioP2;P2;SDS_P1;SDS_P2;PMS_P1;PMS_P2;Temp;Humidity;BMP_temperature;BMP_pressure;BME280_temperature;BME280_humidity;BME280_pressure;Samples;Min_cycle;Max_cycle;Signal;HPM_P1;HPM_P2
2023/12/21 00:02:26;;;;;;;11.48;2.80;;;16.30;84.30;;;;;;4190162;28;20097;-58
2023/12/21 00:05:09;;;;;;;10.70;2.70;;;16.30;84.10;;;;;;4172382;28;20072;-58
2023/12/21 00:07:49;;;;;;;10.40;2.35;;;16.40;84.10;;;;;;4171190;28;20400;-58
2023/12/21 00:10:31;;;;;;;10.30;2.40;;;16.30;84.30;;;;;;4176397;28;20051;-58
2023/12/21 00:13:13;;;;;;;12.80;2.45;;;16.40;84.20;;;;;;4190061;28;20376;-58
2023/12/21 00:15:54;;;;;;;13.85;2.92;;;16.50;83.90;;;;;;4189995;28;20051;-59
2023/12/21 00:18:35;;;;;;;8.75;2.70;;;16.50;83.60;;;;;;4189869;28;20050;-50
2023/12/21 00:21:16;;;;;;;16.70;3.22;;;16.50;83.30;;;;;;4168547;28;20610;-47
2023/12/21 00:23:57;;;;;;;11.80;2.40;;;16.50;83.20;;;;;;4157069;28;20052;-49
2023/12/21 00:26:38;;;;;;;12.32;2.45;;;16.50;83.30;;;;;;4177159;28;20048;-50
2023/12/21 00:29:21;;;;;;;8.65;2.05;;;16.50;83.40;;;;;;4188838;28;20074;-50
2023/12/21 00:32:02;;;;;;;11.57;2.20;;;16.50;83.20;;;;;;4188994;28;20051;-48
2023/12/21 00:34:43;;;;;;;10.80;2.70;;;16.50;83.20;;;;;;4188402;28;20507;-51
2023/12/21 00:37:25;;;;;;;15.55;2.67;;;16.50;83.20;;;;;;4187509;28;20117;-48
2023/12/21 00:40:07;;;;;;;11.05;2.47;;;16.40;83.20;;;;;;4172325;28;20079;-48
2023/12/21 00:42:48;;;;;;;10.30;1.95;;;16.40;83.40;;;;;;4188024;28;20047;-48
2023/12/21 00:45:30;;;;;;;8.82;2.25;;;16.40;83.70;;;;;;4188135;28;20186;-51
2023/12/21 00:48:13;;;;;;;11.43;2.70;;;16.30;84.10;;;;;;4187976;28;20059;-49
2023/12/21 00:50:54;;;;;;;7.00;2.17;;;16.30;84.30;;;;;;4187571;28;20071;-51
2023/12/21 00:53:35;;;;;;;12.02;3.05;;;16.40;84.30;;;;;;4179429;28;20103;-53
2023/12/21 00:56:16;;;;;;;10.40;2.33;;;16.40;84.00;;;;;;4171333;28;20059;-48
2023/12/21 00:58:59;;;;;;;7.32;2.03;;;16.50;83.90;;;;;;4163656;28;20055;-50
2023/12/21 01:01:41;;;;;;;11.85;2.38;;;16.50;83.70;;;;;;4188651;28;20055;-49
2023/12/21 01:04:22;;;;;;;9.23;2.10;;;16.50;83.40;;;;;;4188329;28;20060;-47
2023/12/21 01:07:03;;;;;;;11.10;2.40;;;16.50;83.30;;;;;;4188118;28;20065;-50
2023/12/21 01:09:44;;;;;;;8.38;1.92;;;16.60;83.30;;;;;;4187124;28;20121;-48
2023/12/21 01:12:25;;;;;;;15.13;3.42;;;16.60;83.20;;;;;;4175220;28;20082;-47
2023/12/21 01:15:07;;;;;;;12.57;2.25;;;16.60;83.20;;;;;;4187089;28;20109;-48
2023/12/21 01:17:50;;;;;;;10.05;2.65;;;16.60;83.10;;;;;;4187896;28;20067;-48
2023/12/21 01:20:31;;;;;;;8.60;2.10;;;16.60;83.20;;;;;;4187904;28;20190;-49
2023/12/21 01:23:13;;;;;;;10.25;2.85;;;16.60;83.30;;;;;;4187976;28;20059;-52
2023/12/21 01:25:54;;;;;;;7.97;2.00;;;16.50;83.40;;;;;;4174100;28;20152;-50
2023/12/21 01:28:35;;;;;;;10.43;3.10;;;16.40;83.60;;;;;;4170752;28;20061;-50
2023/12/21 01:31:15;;;;;;;7.78;2.17;;;16.40;84.00;;;;;;4160518;28;20064;-48
2023/12/21 01:33:59;;;;;;;8.65;2.22;;;16.30;84.30;;;;;;4171722;28;20043;-48
2023/12/21 01:36:40;;;;;;;14.60;2.97;;;16.30;84.70;;;;;;4174478;28;20043;-49
2023/12/21 01:39:22;;;;;;;8.70;2.66;;;16.40;84.80;;;;;;4182329;28;1105890;-50
2023/12/21 01:42:03;;;;;;;4.65;1.88;;;16.50;84.20;;;;;;4188575;28;20062;-48
2023/12/21 01:44:43;;;;;;;7.75;2.85;;;16.60;83.70;;;;;;4188043;28;20047;-50
2023/12/21 01:47:24;;;;;;;10.88;2.47;;;16.60;83.40;;;;;;4181188;28;20055;-53
2023/12/21 01:50:08;;;;;;;9.75;2.63;;;16.70;83.30;;;;;;4188531;28;20129;-47
2023/12/21 01:52:49;;;;;;;11.45;2.70;;;16.70;83.30;;;;;;4188248;28;20063;-50
2023/12/21 01:55:32;;;;;;;3.17;1.42;;;16.70;83.40;;;;;;4188326;28;20391;-51
2023/12/21 01:58:13;;;;;;;6.82;2.10;;;16.70;83.50;;;;;;4171573;28;20507;-49
2023/12/21 02:00:57;;;;;;;8.10;2.58;;;16.60;83.60;;;;;;4175674;28;20408;-50
2023/12/21 02:03:40;;;;;;;4.35;1.75;;;16.60;83.30;;;;;;4187876;28;20055;-50
2023/12/21 02:06:23;;;;;;;5.80;1.85;;;16.60;83.40;;;;;;4188369;28;20125;-50
2023/12/21 02:09:04;;;;;;;7.13;1.83;;;16.50;83.60;;;;;;4188045;28;20051;-51
2023/12/21 02:11:47;;;;;;;9.45;2.20;;;16.50;83.90;;;;;;4187975;28;20427;-50
2023/12/21 02:14:27;;;;;;;5.93;1.70;;;16.50;84.20;;;;;;4157165;28;20147;-49
2023/12/21 02:17:12;;;;;;;6.32;1.90;;;16.50;84.20;;;;;;4154933;28;20123;-52
2023/12/21 02:19:54;;;;;;;9.43;2.13;;;16.50;84.10;;;;;;4171635;28;20060;-49
2023/12/21 02:22:40;;;;;;;6.70;2.20;;;16.60;84.00;;;;;;4187862;28;20178;-50
2023/12/21 02:25:23;;;;;;;6.68;1.60;;;16.60;83.80;;;;;;4187939;28;20070;-51
2023/12/21 02:28:04;;;;;;;7.93;1.90;;;16.60;83.80;;;;;;4187659;28;20055;-51
2023/12/21 02:30:46;;;;;;;8.50;2.33;;;16.70;83.70;;;;;;4170362;28;20052;-51
2023/12/21 02:33:27;;;;;;;8.13;2.10;;;16.70;83.80;;;;;;4171257;28;20059;-50
2023/12/21 02:36:08;;;;;;;5.97;1.88;;;16.70;83.70;;;;;;4187685;28;20594;-53
2023/12/21 02:38:50;;;;;;;4.78;1.70;;;16.60;83.60;;;;;;4171417;28;20052;-53
2023/12/21 02:41:32;;;;;;;8.98;2.08;;;16.60;83.80;;;;;;4186362;28;20052;-53
2023/12/21 02:44:13;;;;;;;10.48;2.42;;;16.60;84.00;;;;;;4187436;28;20060;-52
2023/12/21 02:46:54;;;;;;;3.85;2.08;;;16.60;84.00;;;;;;4172102;28;20194;-48
2023/12/21 02:49:35;;;;;;;7.10;1.90;;;16.60;83.90;;;;;;4155691;28;20094;-50
2023/12/21 02:52:16;;;;;;;9.07;2.38;;;16.60;83.80;;;;;;4166712;28;20056;-48
2023/12/21 02:54:58;;;;;;;5.47;1.90;;;16.60;83.90;;;;;;4170068;28;20078;-53
2023/12/21 02:57:40;;;;;;;5.25;2.08;;;16.60;84.00;;;;;;4171251;28;20457;-51
2023/12/21 03:00:21;;;;;;;4.60;1.35;;;16.70;84.00;;;;;;4178444;28;20075;-54
2023/12/21 03:03:02;;;;;;;5.85;2.30;;;16.70;83.90;;;;;;4176846;28;20404;-53
2023/12/21 03:05:43;;;;;;;7.60;2.10;;;16.70;83.70;;;;;;4160274;28;20070;-49
2023/12/21 03:08:24;;;;;;;7.45;2.00;;;16.70;83.80;;;;;;4160883;28;20051;-52
2023/12/21 03:11:06;;;;;;;7.60;1.80;;;16.70;83.90;;;;;;4187380;28;20048;-48
2023/12/21 03:13:48;;;;;;;;;;;16.70;83.90;;;;;;4188017;28;20056;-50
2023/12/21 03:16:29;;;;;;;5.88;2.03;;;16.70;83.80;;;;;;4186216;28;19973;-52
2023/12/21 03:19:10;;;;;;;3.88;1.90;;;16.70;83.70;;;;;;4186149;28;20101;-51
2023/12/21 03:21:51;;;;;;;5.93;1.70;;;16.70;83.70;;;;;;4154352;28;20056;-49
2023/12/21 03:24:32;;;;;;;2.88;1.48;;;16.70;83.80;;;;;;4178104;28;20093;-48
2023/12/21 03:27:14;;;;;;;4.95;2.00;;;16.70;83.70;;;;;;4187116;28;20124;-51
2023/12/21 03:29:56;;;;;;;;;;;16.80;83.60;;;;;;4170097;28;20075;-49
2023/12/21 03:32:38;;;;;;;5.35;1.50;;;16.80;83.50;;;;;;4170499;28;20022;-47
2023/12/21 03:35:19;;;;;;;6.70;1.85;;;16.80;83.50;;;;;;4169571;28;20048;-47
2023/12/21 03:38:00;;;;;;;6.15;1.55;;;16.80;83.20;;;;;;4187299;28;20060;-50
2023/12/21 03:40:41;;;;;;;7.47;2.17;;;16.80;83.40;;;;;;4185824;28;20396;-49
2023/12/21 03:43:22;;;;;;;3.80;1.35;;;16.80;83.40;;;;;;4186731;28;20056;-47
2023/12/21 03:46:08;;;;;;;5.32;1.60;;;16.80;84.40;;;;;;4172202;28;20052;-50
2023/12/21 03:48:49;;;;;;;5.35;1.33;;;16.70;83.60;;;;;;4169954;28;20535;-50
2023/12/21 03:51:30;;;;;;;8.07;1.80;;;16.70;83.90;;;;;;4174200;28;20082;-51
2023/12/21 03:54:11;;;;;;;6.10;2.25;;;16.60;84.20;;;;;;4171633;28;20055;-51
2023/12/21 03:56:53;;;;;;;8.27;2.90;;;16.70;84.30;;;;;;4159168;28;20076;-51
2023/12/21 03:59:35;;;;;;;3.28;1.20;;;16.70;84.10;;;;;;4170134;28;20408;-51
2023/12/21 04:02:17;;;;;;;6.70;2.05;;;16.70;83.90;;;;;;4170120;28;20079;-49
2023/12/21 04:04:57;;;;;;;6.53;1.98;;;16.70;83.80;;;;;;4153846;28;20769;-51
2023/12/21 04:07:38;;;;;;;5.43;1.80;;;16.70;83.90;;;;;;4152409;28;20068;-51
2023/12/21 04:10:19;;;;;;;6.43;1.60;;;16.80;84.00;;;;;;4171314;28;20125;-49
2023/12/21 04:13:00;;;;;;;6.70;1.90;;;16.80;83.70;;;;;;4181538;28;20060;-49
2023/12/21 04:15:42;;;;;;;5.80;1.50;;;16.80;83.60;;;;;;4170549;28;20052;-54
2023/12/21 04:18:24;;;;;;;7.20;2.10;;;16.80;83.50;;;;;;4170467;28;20052;-52
2023/12/21 04:21:08;;;;;;;2.92;1.45;;;16.80;83.50;;;;;;4185394;28;20063;-49
2023/12/21 04:23:48;;;;;;;5.97;1.75;;;16.90;83.40;;;;;;4172799;28;20055;-48
2023/12/21 04:26:29;;;;;;;5.18;1.27;;;16.90;83.40;;;;;;4187086;28;20059;-50
2023/12/21 04:29:11;;;;;;;6.40;1.52;;;16.90;83.30;;;;;;4188114;28;20091;-51
2023/12/21 04:31:54;;;;;;;8.05;2.10;;;16.90;83.30;;;;;;4189900;28;20068;-50
2023/12/21 04:34:37;;;;;;;6.72;1.50;;;16.80;83.40;;;;;;4189235;28;20059;-48
2023/12/21 04:37:17;;;;;;;3.58;1.52;;;16.80;83.80;;;;;;4188826;28;20067;-49
2023/12/21 04:39:58;;;;;;;4.13;1.27;;;16.80;84.00;;;;;;4189372;28;20490;-48
2023/12/21 04:42:41;;;;;;;3.80;1.17;;;16.80;84.60;;;;;;4188116;28;20072;-48
2023/12/21 04:45:22;;;;;;;2.75;1.83;;;16.80;84.00;;;;;;4178357;28;20064;-46
2023/12/21 04:48:03;;;;;;;5.78;1.40;;;16.80;83.60;;;;;;4176801;28;20052;-49
2023/12/21 04:50:45;;;;;;;6.13;1.73;;;16.80;83.60;;;;;;4189259;28;20057;-57
2023/12/21 04:53:26;;;;;;;4.80;1.20;;;16.80;83.80;;;;;;4171590;28;20048;-57
2023/12/21 04:56:08;;;;;;;2.58;0.90;;;16.80;83.70;;;;;;4172872;28;20059;-50
2023/12/21 04:58:49;;;;;;;4.75;1.15;;;16.80;83.60;;;;;;4172458;28;20428;-51
2023/12/21 05:01:30;;;;;;;5.00;1.30;;;16.80;83.70;;;;;;4185855;28;20054;-49
2023/12/21 05:04:11;;;;;;;3.10;1.27;;;16.80;83.50;;;;;;4172202;28;20156;-49
2023/12/21 05:06:53;;;;;;;3.38;0.93;;;16.80;83.70;;;;;;4154821;28;20753;-50
2023/12/21 05:09:34;;;;;;;1.77;1.02;;;16.80;83.80;;;;;;4172410;28;20219;-49
2023/12/21 05:12:15;;;;;;;4.53;0.90;;;16.70;84.20;;;;;;4177169;28;20059;-51
2023/12/21 05:14:56;;;;;;;1.90;0.90;;;16.70;85.50;;;;;;4172135;28;20060;-53
2023/12/21 05:17:37;;;;;;;2.92;1.35;;;16.70;84.50;;;;;;4172003;28;20135;-51
2023/12/21 05:20:18;;;;;;;6.55;1.48;;;16.80;84.30;;;;;;4173798;28;20479;-49
2023/12/21 05:23:01;;;;;;;7.50;1.45;;;16.80;84.00;;;;;;4192520;28;20063;-51
2023/12/21 05:25:42;;;;;;;1.60;1.00;;;16.80;83.90;;;;;;4184926;28;20190;-49
2023/12/21 05:28:23;;;;;;;3.70;1.50;;;16.80;83.90;;;;;;4169618;28;20135;-49
2023/12/21 05:31:04;;;;;;;5.03;1.38;;;16.80;84.00;;;;;;4172035;28;20194;-51
2023/12/21 05:33:45;;;;;;;5.80;1.77;;;16.80;83.80;;;;;;4169260;28;20392;-49
2023/12/21 05:36:26;;;;;;;5.78;2.03;;;16.80;83.70;;;;;;4170869;28;20415;-49
2023/12/21 05:39:09;;;;;;;3.90;1.10;;;16.80;83.80;;;;;;4159484;28;20107;-53
2023/12/21 05:41:57;;;;;;;6.43;1.95;;;16.90;83.90;;;;;;4171353;28;20072;-52
2023/12/21 05:44:38;;;;;;;4.75;1.30;;;16.90;84.00;;;;;;4155199;28;20401;-50
2023/12/21 05:47:20;;;;;;;7.30;1.48;;;16.90;83.90;;;;;;4171055;28;20056;-51
2023/12/21 05:50:01;;;;;;;3.55;1.33;;;16.90;83.90;;;;;;4186511;28;20059;-49
2023/12/21 05:52:43;;;;;;;3.40;1.15;;;16.90;83.70;;;;;;4188066;28;20495;-50
2023/12/21 05:55:25;;;;;;;5.53;1.38;;;16.90;83.50;;;;;;4187434;28;20122;-51
2023/12/21 05:58:06;;;;;;;4.07;1.25;;;16.90;83.60;;;;;;4187586;28;20059;-49
2023/12/21 06:00:47;;;;;;;4.25;1.27;;;16.90;83.40;;;;;;4180850;28;20546;-54
2023/12/21 06:03:28;;;;;;;5.13;1.30;;;16.80;83.60;;;;;;4188620;28;20055;-50
2023/12/21 06:06:09;;;;;;;3.08;1.15;;;16.80;83.80;;;;;;4187823;28;20064;-52
2023/12/21 06:08:50;;;;;;;2.90;1.73;;;16.80;84.10;;;;;;4187716;28;20093;-51
2023/12/21 06:11:32;;;;;;;5.35;1.83;;;16.80;84.10;;;;;;4172265;28;20512;-52
2023/12/21 06:14:13;;;;;;;10.02;1.77;;;16.90;83.90;;;;;;4171055;28;20064;-51
2023/12/21 06:16:54;;;;;;;3.97;1.30;;;16.90;83.70;;;;;;4171250;28;20066;-51
2023/12/21 06:19:36;;;;;;;4.28;1.48;;;17.00;83.60;;;;;;4171185;28;20055;-54
2023/12/21 06:22:17;;;;;;;7.63;1.00;;;17.00;84.30;;;;;;4180550;28;20048;-51
2023/12/21 06:24:58;;;;;;;5.65;1.60;;;17.00;83.10;;;;;;4171210;28;20693;-52
2023/12/21 06:27:40;;;;;;;;;;;17.00;83.20;;;;;;4186238;28;20506;-48
2023/12/21 06:30:21;;;;;;;5.07;1.63;;;17.00;83.20;;;;;;4187708;28;19947;-52
2023/12/21 06:33:02;;;;;;;4.50;1.53;;;17.00;83.50;;;;;;4186022;28;20112;-54
2023/12/21 06:35:43;;;;;;;;;;;16.90;83.50;;;;;;4188300;28;20093;-52
2023/12/21 06:38:24;;;;;;;4.28;1.40;;;16.80;83.60;;;;;;4187846;28;19932;-49
2023/12/21 06:41:05;;;;;;;10.30;1.92;;;16.80;84.00;;;;;;4183473;28;20051;-47
2023/12/21 06:43:47;;;;;;;7.20;1.63;;;16.80;84.00;;;;;;4169598;28;20898;-51
2023/12/21 06:46:28;;;;;;;7.18;1.35;;;16.80;83.90;;;;;;4153715;28;20099;-50
2023/12/21 06:49:11;;;;;;;6.10;1.45;;;16.80;83.80;;;;;;4155594;28;20055;-51
2023/12/21 06:51:52;;;;;;;5.72;2.05;;;16.80;83.80;;;;;;4155083;28;20515;-51
2023/12/21 06:54:34;;;;;;;10.95;2.35;;;16.80;83.80;;;;;;4154642;28;20044;-47
2023/12/21 06:57:15;;;;;;;7.07;2.30;;;16.80;84.10;;;;;;4168696;28;20526;-49
2023/12/21 06:59:58;;;;;;;3.47;1.27;;;16.80;84.60;;;;;;4170881;28;20048;-47
2023/12/21 07:02:38;;;;;;;4.60;1.20;;;16.80;84.70;;;;;;4170593;28;20048;-49
2023/12/21 07:05:20;;;;;;;3.70;1.05;;;16.80;84.50;;;;;;4185400;28;20051;-53
2023/12/21 07:08:02;;;;;;;2.42;0.90;;;16.90;85.00;;;;;;4158749;28;20048;-50
2023/12/21 07:10:43;;;;;;;5.85;1.50;;;16.90;83.90;;;;;;4182623;28;20186;-47
2023/12/21 07:13:24;;;;;;;2.28;0.80;;;16.80;84.60;;;;;;4170468;28;20059;-50
2023/12/21 07:16:07;;;;;;;2.38;0.90;;;16.80;83.80;;;;;;4186538;28;20514;-50
2023/12/21 07:18:48;;;;;;;2.03;0.65;;;16.70;84.00;;;;;;4186695;28;20055;-48
2023/12/21 07:21:29;;;;;;;4.03;1.00;;;16.70;84.40;;;;;;4157927;28;20060;-48
2023/12/21 07:24:10;;;;;;;0.68;0.57;;;16.70;84.70;;;;;;4170707;28;20105;-47
2023/12/21 07:26:51;;;;;;;1.02;0.73;;;16.70;84.60;;;;;;4170042;28;20408;-51
2023/12/21 07:29:32;;;;;;;1.27;0.60;;;16.70;84.50;;;;;;4170008;28;20406;-47
2023/12/21 07:32:15;;;;;;;1.40;0.60;;;16.70;84.60;;;;;;4175240;28;20128;-47
2023/12/21 07:34:56;;;;;;;0.93;0.30;;;16.70;84.80;;;;;;4169337;28;20051;-48
2023/12/21 07:37:37;;;;;;;1.25;0.70;;;16.70;84.20;;;;;;4171133;28;20114;-47
2023/12/21 07:40:18;;;;;;;0.65;0.52;;;16.70;84.00;;;;;;4170027;28;20971;-46
2023/12/21 07:42:59;;;;;;;1.77;0.65;;;16.60;84.20;;;;;;4170375;28;20416;-48
2023/12/21 07:45:40;;;;;;;2.20;0.90;;;16.60;84.30;;;;;;4182008;28;20388;-46
2023/12/21 07:48:23;;;;;;;1.65;1.00;;;16.60;84.80;;;;;;4185733;28;20073;-46
2023/12/21 07:51:05;;;;;;;0.85;0.55;;;16.60;85.20;;;;;;4171392;28;20206;-46
2023/12/21 07:53:45;;;;;;;3.03;0.80;;;16.60;84.80;;;;;;4187082;28;20101;-45
2023/12/21 07:56:27;;;;;;;2.15;0.80;;;16.70;84.70;;;;;;4180160;28;20418;-52
2023/12/21 07:59:08;;;;;;;1.98;0.90;;;16.70;84.30;;;;;;4187207;28;20109;-54
2023/12/21 08:01:49;;;;;;;4.53;1.20;;;16.70;84.40;;;;;;4170148;28;20056;-53
2023/12/21 08:04:32;;;;;;;1.48;0.70;;;16.60;84.40;;;;;;4182892;28;20064;-47
2023/12/21 08:07:15;;;;;;;5.63;1.02;;;16.60;84.60;;;;;;4177315;28;20060;-50
2023/12/21 08:09:55;;;;;;;3.03;0.98;;;16.50;85.10;;;;;;4183546;28;20483;-45
2023/12/21 08:12:37;;;;;;;2.47;0.82;;;16.50;86.50;;;;;;4175105;28;20198;-46
2023/12/21 08:15:18;;;;;;;;;;;16.50;85.60;;;;;;4186537;28;20059;-46
2023/12/21 08:17:59;;;;;;;1.52;0.63;;;16.60;85.50;;;;;;4182470;28;19927;-47
2023/12/21 08:20:42;;;;;;;2.28;0.90;;;16.60;85.20;;;;;;4169464;28;20060;-47
2023/12/21 08:23:24;;;;;;;1.80;0.80;;;16.70;85.50;;;;;;4183682;28;20056;-47
2023/12/21 08:26:05;;;;;;;3.88;0.82;;;16.80;84.70;;;;;;4172698;28;20079;-46
2023/12/21 08:28:47;;;;;;;1.88;0.70;;;16.80;84.50;;;;;;4169794;28;20364;-48
2023/12/21 08:31:30;;;;;;;2.03;0.85;;;16.80;84.30;;;;;;4182934;28;20064;-47
2023/12/21 08:34:12;;;;;;;2.90;0.82;;;16.80;84.50;;;;;;4179211;28;20098;-46
2023/12/21 08:36:55;;;;;;;2.72;0.80;;;16.90;84.50;;;;;;4185050;28;20502;-52
2023/12/21 08:39:35;;;;;;;4.45;1.10;;;16.90;84.30;;;;;;4176362;28;20056;-46
2023/12/21 08:42:16;;;;;;;;;;;16.90;84.20;;;;;;4179623;28;20097;-45
2023/12/21 08:44:59;;;;;;;3.85;1.30;;;16.80;84.40;;;;;;4171663;28;19931;-46
2023/12/21 08:47:41;;;;;;;5.00;1.30;;;16.80;85.30;;;;;;4186792;28;20085;-45
2023/12/21 08:50:23;;;;;;;7.05;1.92;;;16.80;84.60;;;;;;4170425;28;20068;-46
2023/12/21 08:53:05;;;;;;;8.07;2.35;;;16.70;84.70;;;;;;4182419;28;20075;-49
2023/12/21 08:55:46;;;;;;;9.57;2.13;;;16.70;85.00;;;;;;4176947;28;20503;-47
2023/12/21 08:58:27;;;;;;;8.70;1.52;;;16.60;85.00;;;;;;4172285;28;20060;-47
2023/12/21 09:01:09;;;;;;;6.80;2.15;;;16.60;85.60;;;;;;4173012;28;20052;-48
2023/12/21 09:03:49;;;;;;;8.93;1.88;;;16.50;86.00;;;;;;4158858;28;20087;-49
2023/12/21 09:06:31;;;;;;;4.35;1.70;;;16.50;86.20;;;;;;4183232;28;20475;-50
2023/12/21 09:09:15;;;;;;;6.25;1.98;;;16.50;86.40;;;;;;4188211;28;20051;-47
2023/12/21 09:11:56;;;;;;;8.65;1.65;;;16.50;86.40;;;;;;4172708;28;20052;-46
2023/12/21 09:14:37;;;;;;;7.70;1.88;;;16.50;86.40;;;;;;4182970;28;20133;-46
2023/12/21 09:17:19;;;;;;;8.85;1.75;;;16.40;86.50;;;;;;4189051;28;20051;-51
2023/12/21 09:19:59;;;;;;;7.28;1.88;;;16.50;86.60;;;;;;4171793;28;20060;-47
2023/12/21 09:22:41;;;;;;;10.20;2.20;;;16.50;86.60;;;;;;4171646;28;20043;-47
2023/12/21 09:25:24;;;;;;;5.57;1.67;;;16.50;86.30;;;;;;4172019;28;20056;-47
2023/12/21 09:28:06;;;;;;;5.88;1.92;;;16.60;86.00;;;;;;4178923;28;20055;-46
2023/12/21 09:30:47;;;;;;;5.80;1.48;;;16.70;86.00;;;;;;4186880;28;20379;-46
2023/12/21 09:33:28;;;;;;;5.65;1.50;;;16.70;85.80;;;;;;4189061;28;20051;-50
2023/12/21 09:36:09;;;;;;;5.18;1.40;;;16.70;85.60;;;;;;4188549;28;20110;-52
2023/12/21 09:38:51;;;;;;;6.55;1.80;;;16.70;85.70;;;;;;4188611;28;20134;-46
2023/12/21 09:41:34;;;;;;;7.63;1.80;;;16.70;85.70;;;;;;4180303;28;20064;-47
2023/12/21 09:44:17;;;;;;;8.43;1.90;;;16.80;85.40;;;;;;4171493;28;20063;-49
2023/12/21 09:46:59;;;;;;;6.50;1.83;;;16.80;85.30;;;;;;4172088;28;20060;-48
2023/12/21 09:49:41;;;;;;;6.82;2.72;;;16.80;85.30;;;;;;4155978;28;20515;-49
2023/12/21 09:52:22;;;;;;;10.38;2.35;;;16.70;85.40;;;;;;4172079;28;20048;-49
2023/12/21 09:55:05;;;;;;;9.25;2.45;;;16.80;85.60;;;;;;4181725;28;20090;-48
2023/12/21 09:57:49;;;;;;;6.38;2.05;;;16.80;85.30;;;;;;4172044;28;20060;-47
2023/12/21 10:00:31;;;;;;;5.15;1.95;;;16.90;85.20;;;;;;4171684;28;20071;-49
2023/12/21 10:03:12;;;;;;;5.40;1.58;;;16.90;85.10;;;;;;4156733;28;20184;-46
2023/12/21 10:05:53;;;;;;;11.75;2.00;;;16.90;85.00;;;;;;4161933;28;20064;-47
2023/12/21 10:08:34;;;;;;;8.57;2.03;;;16.80;85.90;;;;;;4171493;28;20052;-45
2023/12/21 10:11:15;;;;;;;5.43;1.65;;;16.80;85.20;;;;;;4171652;28;20095;-49
2023/12/21 10:14:01;;;;;;;5.97;1.15;;;16.80;85.50;;;;;;4173968;28;20159;-52
2023/12/21 10:16:42;;;;;;;13.60;2.33;;;16.80;85.50;;;;;;4187716;28;20056;-47
2023/12/21 10:19:23;;;;;;;8.70;2.22;;;16.90;85.00;;;;;;4178175;28;20056;-51
2023/12/21 10:22:04;;;;;;;7.07;2.08;;;16.90;84.80;;;;;;4186623;28;20097;-47
2023/12/21 10:24:46;;;;;;;4.20;1.33;;;16.90;84.80;;;;;;4186748;28;20574;-46
2023/12/21 10:27:29;;;;;;;8.40;1.63;;;16.90;84.80;;;;;;4187356;28;20059;-46
2023/12/21 10:30:15;;;;;;;5.85;1.48;;;16.80;84.90;;;;;;4171196;28;20543;-47
2023/12/21 10:32:56;;;;;;;5.28;1.88;;;16.80;85.00;;;;;;4157362;28;20195;-46
2023/12/21 10:35:38;;;;;;;7.30;1.83;;;16.80;84.90;;;;;;4185853;28;20055;-48
2023/12/21 10:38:20;;;;;;;8.02;2.00;;;16.80;85.20;;;;;;4187816;28;20491;-46
2023/12/21 10:41:05;;;;;;;;;;;16.80;85.00;;;;;;4184386;28;20391;-48
2023/12/21 10:43:46;;;;;;;7.53;2.33;;;16.70;85.10;;;;;;4186980;28;20398;-46
2023/12/21 10:46:31;;;;;;;9.48;2.22;;;16.80;85.10;;;;;;4181043;28;20068;-47
2023/12/21 10:49:13;;;;;;;6.90;1.95;;;16.80;84.70;;;;;;4171309;28;20392;-47
2023/12/21 10:51:56;;;;;;;4.30;1.25;;;16.80;84.40;;;;;;4179828;28;20067;-47
2023/12/21 10:54:40;;;;;;;7.45;2.13;;;16.90;84.20;;;;;;4187109;28;20186;-47
2023/12/21 10:57:22;;;;;;;8.75;2.08;;;16.90;84.00;;;;;;4187768;28;20059;-49
2023/12/21 11:00:04;;;;;;;11.70;2.20;;;16.80;84.00;;;;;;4185711;28;20067;-48
2023/12/21 11:02:47;;;;;;;5.60;1.77;;;16.80;84.20;;;;;;4197998;28;20146;-48
2023/12/21 11:05:32;;;;;;;9.57;2.42;;;16.80;84.10;;;;;;4173513;28;20059;-48
2023/12/21 11:08:13;;;;;;;9.95;2.10;;;16.80;84.70;;;;;;4176338;28;20064;-49
2023/12/21 11:10:56;;;;;;;7.80;1.80;;;16.80;83.80;;;;;;4187311;28;20059;-45
2023/12/21 11:13:40;;;;;;;8.48;2.45;;;16.80;83.70;;;;;;4187006;28;20400;-45
2023/12/21 11:16:24;;;;;;;9.75;2.15;;;16.80;83.80;;;;;;4186768;28;20585;-47
2023/12/21 11:19:10;;;;;;;10.23;1.85;;;16.80;83.90;;;;;;4186991;28;20051;-45
2023/12/21 11:21:51;;;;;;;6.40;1.83;;;16.80;83.50;;;;;;4187126;28;20125;-49
2023/12/21 11:24:33;;;;;;;10.70;2.65;;;16.90;83.30;;;;;;4187122;28;20461;-50
2023/12/21 11:27:14;;;;;;;9.15;1.73;;;16.90;83.10;;;;;;4187482;28;20059;-47
2023/12/21 11:29:56;;;;;;;12.43;2.55;;;16.90;82.80;;;;;;4186406;28;20494;-48
2023/12/21 11:32:37;;;;;;;12.02;2.47;;;16.80;83.00;;;;;;4187689;28;20141;-48
2023/12/21 11:35:25;;;;;;;11.10;3.28;;;16.80;83.30;;;;;;4188605;28;20052;-46
2023/12/21 11:38:07;;;;;;;10.35;2.47;;;16.80;83.40;;;;;;4188586;28;20182;-47
2023/12/21 11:40:50;;;;;;;12.95;3.00;;;16.90;83.60;;;;;;4190088;28;20056;-52
2023/12/21 11:43:31;;;;;;;16.33;2.50;;;16.80;84.30;;;;;;4187712;28;20755;-48
2023/12/21 11:46:12;;;;;;;9.90;2.80;;;16.80;84.00;;;;;;4161999;28;20051;-51
2023/12/21 11:48:53;;;;;;;9.68;2.35;;;16.80;84.90;;;;;;4172997;28;20052;-50
2023/12/21 11:51:47;;;;;;;6.82;2.65;;;16.80;84.00;;;;;;4172735;28;20147;-47
2023/12/21 11:54:28;;;;;;;14.98;2.80;;;16.80;83.80;;;;;;4172975;28;20178;-46
2023/12/21 11:57:14;;;;;;;17.83;2.97;;;16.80;84.00;;;;;;4174476;28;20060;-51
2023/12/21 12:00:10;;;;;;;13.18;2.88;;;16.70;83.80;;;;;;4189783;28;20498;-49
2023/12/21 12:02:53;;;;;;;18.08;3.22;;;16.70;83.90;;;;;;4188832;28;20574;-49
2023/12/21 12:05:34;;;;;;;14.48;2.78;;;16.70;83.80;;;;;;4189986;28;20055;-46
2023/12/21 12:08:22;;;;;;;15.70;2.65;;;16.70;83.60;;;;;;4189961;28;20105;-50
2023/12/21 12:11:04;;;;;;;14.82;2.55;;;16.60;83.20;;;;;;4190347;28;20055;-50
2023/12/21 12:13:46;;;;;;;14.43;3.75;;;16.60;83.20;;;;;;4186607;28;20067;-47
2023/12/21 12:16:27;;;;;;;15.80;3.25;;;16.50;83.20;;;;;;4189924;28;20542;-47
2023/12/21 12:19:10;;;;;;;;;;;16.50;83.10;;;;;;4171306;28;20084;-48
2023/12/21 12:21:52;;;;;;;15.30;3.30;;;16.40;83.10;;;;;;4173248;28;19932;-51
2023/12/21 12:24:34;;;;;;;17.30;3.00;;;16.30;82.70;;;;;;4189329;28;20093;-48
2023/12/21 12:27:15;;;;;;;14.75;3.22;;;16.30;83.10;;;;;;4189381;28;20059;-47
2023/12/21 12:29:57;;;;;;;14.65;2.78;;;16.20;82.70;;;;;;4186434;28;20060;-50
2023/12/21 12:32:38;;;;;;;19.42;3.35;;;16.20;83.60;;;;;;4187505;28;20059;-54
2023/12/21 12:35:20;;;;;;;12.20;3.33;;;16.10;84.00;;;;;;4178062;28;20227;-50
2023/12/21 12:38:01;;;;;;;17.08;3.03;;;16.10;84.30;;;;;;4169864;28;20070;-52
2023/12/21 12:40:46;;;;;;;2.78;1.00;;;16.10;84.30;;;;;;4171807;28;20199;-54
2023/12/21 12:43:34;;;;;;;5.15;0.98;;;16.10;83.40;;;;;;4175770;28;20189;-48
2023/12/21 12:46:15;;;;;;;3.05;0.90;;;16.10;81.90;;;;;;4170675;28;20051;-51
2023/12/21 12:48:56;;;;;;;6.00;1.40;;;16.10;82.10;;;;;;4178872;28;20064;-50
2023/12/21 12:51:37;;;;;;;12.20;2.13;;;16.10;82.60;;;;;;4179590;28;20068;-50
2023/12/21 12:54:18;;;;;;;7.63;1.42;;;16.00;81.70;;;;;;4170464;28;20056;-47
2023/12/21 12:57:03;;;;;;;9.93;1.88;;;15.90;81.60;;;;;;4186035;28;20118;-50
2023/12/21 12:59:45;;;;;;;6.30;2.13;;;15.90;82.80;;;;;;4186584;28;20612;-49
2023/12/21 13:02:26;;;;;;;5.93;2.58;;;15.80;82.70;;;;;;4176728;28;20060;-49
2023/12/21 13:05:09;;;;;;;10.27;1.83;;;15.70;82.30;;;;;;4185599;28;20059;-54
2023/12/21 13:07:50;;;;;;;8.73;1.50;;;15.60;81.90;;;;;;4193994;28;20059;-50
2023/12/21 13:10:32;;;;;;;11.07;2.72;;;15.60;82.20;;;;;;4170119;28;20043;-52
2023/12/21 13:13:14;;;;;;;10.23;2.47;;;15.60;81.90;;;;;;4169739;28;20063;-50
2023/12/21 13:15:55;;;;;;;10.20;2.30;;;15.60;81.20;;;;;;4168518;28;20167;-50
2023/12/21 13:18:36;;;;;;;7.75;2.58;;;15.60;81.20;;;;;;4172316;28;20095;-53
2023/12/21 13:21:17;;;;;;;12.25;2.05;;;15.60;80.80;;;;;;4168578;28;20048;-49
2023/12/21 13:23:59;;;;;;;12.10;2.45;;;15.60;80.60;;;;;;4184029;28;20121;-52
2023/12/21 13:26:41;;;;;;;9.00;1.63;;;15.50;80.10;;;;;;4170195;28;20094;-52
2023/12/21 13:29:23;;;;;;;5.65;1.52;;;15.50;80.20;;;;;;4170386;28;20565;-50
2023/12/21 13:32:05;;;;;;;9.02;1.92;;;15.50;80.50;;;;;;4172153;28;20055;-51
2023/12/21 13:34:47;;;;;;;5.97;1.42;;;15.40;79.90;;;;;;4168403;28;20627;-54
2023/12/21 13:37:28;;;;;;;5.50;1.60;;;15.40;80.10;;;;;;4175821;28;20056;-51
2023/12/21 13:40:10;;;;;;;6.82;1.65;;;15.30;80.40;;;;;;4172006;28;20094;-49
2023/12/21 13:42:51;;;;;;;9.15;1.63;;;15.30;80.60;;;;;;4181848;28;20052;-48
2023/12/21 13:45:34;;;;;;;4.13;1.08;;;15.30;80.70;;;;;;4156992;28;20618;-48
2023/12/21 13:48:17;;;;;;;8.25;2.22;;;15.30;80.40;;;;;;4173209;28;20056;-50
2023/12/21 13:50:59;;;;;;;11.75;2.70;;;15.30;80.40;;;;;;4171096;28;20051;-51
2023/12/21 13:53:40;;;;;;;9.82;2.50;;;15.30;80.20;;;;;;4170929;28;20102;-50
2023/12/21 13:56:22;;;;;;;11.23;2.05;;;15.30;80.30;;;;;;4177527;28;20079;-49
2023/12/21 13:59:02;;;;;;;12.00;2.92;;;15.30;80.10;;;;;;4169097;28;20171;-48
2023/12/21 14:01:45;;;;;;;9.98;3.33;;;15.20;80.30;;;;;;4168430;28;20110;-51